Stalybridge, United Kingdom
Current Conditions -  °F | °C
As of 11:50 AM on Friday 19 Dec 2014 (Local Time) from EGCC Reporting Station
Rain Showers Rain Showers  
Wind Chill: 39°   Ceiling: Unl
Heat Index: 46°   Visibility: 6mi
Dew Point: 37°   Wind: 20mph
Humidity: 71%   Direction: 260°W
Pressure: 29.88"   Gusts: 31mph
Location:  53.48°N, 2.05°W
Report Text: EGCC 191150Z 26017G27KT 9999 4000E VCSH FEW024 SCT030 SCT035TCU 08/03 Q1012
Loading
Personal Weather Stations






























Interactive Weather Map New forecast layout! Learn more

10-Day Weather Forecast

Advertisements
Track Severe Weather on mobile